Time;durP1;ratioP1;P1;durP2;ratioP2;P2;SDS_P1;SDS_P2;PMS_P1;PMS_P2;Temp;Humidity;BMP_temperature;BMP_pressure;BME280_temperature;BME280_humidity;BME280_pressure;Samples;Min_cycle;Max_cycle;Signal;HPM_P1;HPM_P2
2022/12/05 00:00:29;;;;;;;977.03;95.40;;;;;;;0.23;100.00;98355.63;15280722;19;20014;-60
2022/12/05 00:05:54;;;;;;;603.08;80.57;;;;;;;0.23;100.00;98356.47;15280498;19;20019;-62
2022/12/05 00:27:19;;;;;;;1054.20;81.43;;;;;;;0.28;100.00;98367.63;15330332;19;20346;-60
2022/12/05 00:32:43;;;;;;;1279.93;94.57;;;;;;;0.21;100.00;98368.13;15339499;19;20036;-61
2022/12/05 00:38:11;;;;;;;627.53;73.40;;;;;;;0.22;100.00;98375.13;15347581;19;20018;-59
2022/12/05 00:43:40;;;;;;;1086.80;81.05;;;;;;;0.18;100.00;98368.31;15338464;19;20116;-61
2022/12/05 00:49:06;;;;;;;1144.60;81.30;;;;;;;0.16;100.00;98368.41;15335575;19;20019;-58
2022/12/05 00:54:31;;;;;;;686.00;70.47;;;;;;;0.18;100.00;98371.78;15331830;19;20018;-62
2022/12/05 00:59:58;;;;;;;1113.13;78.28;;;;;;;0.14;100.00;98362.34;15331087;19;20039;-58
2022/12/05 01:05:22;;;;;;;744.78;69.10;;;;;;;0.17;100.00;98363.94;15333545;19;20014;-62
2022/12/05 01:10:47;;;;;;;1113.57;75.93;;;;;;;0.15;100.00;98372.00;15332271;19;20093;-63
2022/12/05 01:16:19;;;;;;;565.92;61.05;;;;;;;0.17;100.00;98371.91;15332028;19;20029;-61
2022/12/05 01:21:44;;;;;;;847.65;64.00;;;;;;;0.14;100.00;98375.59;15329971;19;20024;-62
2022/12/05 01:27:15;;;;;;;657.88;61.13;;;;;;;0.13;100.00;98369.44;15287875;19;20082;-62
2022/12/05 01:32:42;;;;;;;397.05;56.50;;;;;;;0.17;100.00;98378.06;15269696;19;20074;-60
2022/12/05 01:38:07;;;;;;;717.80;60.63;;;;;;;0.13;100.00;98387.97;15268619;19;20350;-61
2022/12/05 01:43:32;;;;;;;376.88;49.80;;;;;;;0.15;100.00;98390.56;15273716;19;20021;-61
2022/12/05 01:49:03;;;;;;;521.03;52.20;;;;;;;0.13;100.00;98390.63;15268635;19;20018;-62
2022/12/05 01:54:28;;;;;;;765.80;64.13;;;;;;;0.14;100.00;98391.50;15269286;19;20013;-60
2022/12/05 01:59:57;;;;;;;255.27;47.78;;;;;;;0.15;100.00;98398.50;15268475;19;20028;-60
2022/12/05 02:05:30;;;;;;;373.63;52.37;;;;;;;0.17;100.00;98403.69;15269696;19;20397;-62
2022/12/05 02:10:58;;;;;;;697.30;57.08;;;;;;;0.16;100.00;98402.84;15269412;19;20624;-60
2022/12/05 02:16:32;;;;;;;542.20;51.78;;;;;;;0.18;100.00;98402.75;15269537;19;20018;-61
2022/12/05 02:22:24;;;;;;;749.10;57.08;;;;;;;0.18;100.00;98406.22;15266089;19;20500;-62
2022/12/05 02:28:23;;;;;;;907.03;63.97;;;;;;;0.16;100.00;98400.19;15274820;19;20010;-64
2022/12/05 02:33:55;;;;;;;758.47;60.40;;;;;;;0.12;100.00;98403.97;15267018;19;20077;-61
2022/12/05 02:39:28;;;;;;;313.40;46.03;;;;;;;0.09;100.00;98410.31;15267560;19;20495;-63
2022/12/05 02:44:58;;;;;;;824.30;62.30;;;;;;;0.06;100.00;98418.47;15273000;19;20028;-62
2022/12/05 02:50:30;;;;;;;704.53;51.42;;;;;;;0.04;100.00;98414.22;15265439;19;20093;-60
2022/12/05 02:55:55;;;;;;;901.55;55.15;;;;;;;0.03;100.00;98412.50;15267447;19;20513;-60
2022/12/05 03:01:21;;;;;;;753.30;48.67;;;;;;;0.02;100.00;98411.63;15271543;19;20035;-60
2022/12/05 03:06:53;;;;;;;764.65;45.70;;;;;;;-0.02;100.00;98410.13;15269733;19;20011;-61
2022/12/05 03:12:21;;;;;;;704.03;43.95;;;;;;;-0.05;100.00;98403.22;15268621;19;20029;-58
2022/12/05 03:17:52;;;;;;;775.35;46.10;;;;;;;-0.06;100.00;98404.16;15274216;19;20762;-59
2022/12/05 03:23:31;;;;;;;774.50;47.70;;;;;;;-0.06;100.00;98403.31;15256703;19;20020;-60
2022/12/05 03:29:11;;;;;;;897.97;51.80;;;;;;;-0.11;100.00;98405.38;15255309;19;20019;-61
2022/12/05 03:34:45;;;;;;;904.38;50.28;;;;;;;-0.13;100.00;98396.72;15264293;19;20070;-59
2022/12/05 03:40:28;;;;;;;802.95;46.63;;;;;;;-0.14;100.00;98405.59;15263266;19;20082;-57
2022/12/05 03:45:56;;;;;;;900.60;48.15;;;;;;;-0.15;100.00;98404.72;15263677;19;20010;-59
2022/12/05 03:51:24;;;;;;;846.15;44.92;;;;;;;-0.14;100.00;98401.13;15260305;19;20482;-58
2022/12/05 03:56:56;;;;;;;898.40;48.85;;;;;;;-0.12;100.00;98406.34;15266947;19;20510;-58
2022/12/05 04:02:28;;;;;;;810.28;45.60;;;;;;;-0.14;100.00;98409.09;15260571;19;20018;-60
2022/12/05 04:07:55;;;;;;;837.78;49.80;;;;;;;-0.12;100.00;98409.00;15268563;19;20042;-59
2022/12/05 04:13:28;;;;;;;788.08;45.40;;;;;;;-0.11;100.00;98413.34;15265434;19;20018;-61
2022/12/05 04:19:07;;;;;;;615.13;42.63;;;;;;;-0.11;100.00;98414.19;15257302;19;20015;-60
2022/12/05 04:30:18;;;;;;;291.88;37.00;;;;;;;-0.10;100.00;98418.56;15258506;19;20019;-62
2022/12/05 04:35:48;;;;;;;439.17;37.75;;;;;;;-0.07;100.00;98426.31;15261488;19;20752;-62
2022/12/05 04:41:16;;;;;;;349.95;36.22;;;;;;;-0.06;100.00;98430.66;15260280;19;20051;-60
2022/12/05 04:46:46;;;;;;;317.20;35.25;;;;;;;-0.04;100.00;98431.41;15262950;19;20046;-63
2022/12/05 04:52:16;;;;;;;519.45;41.03;;;;;;;-0.03;100.00;98435.75;15255758;19;20014;-62
2022/12/05 04:57:47;;;;;;;380.63;35.75;;;;;;;-0.02;100.00;98432.16;15262241;19;20025;-61
2022/12/05 05:03:29;;;;;;;246.73;34.20;;;;;;;0.01;100.00;98440.88;15270799;19;20482;-61
2022/12/05 05:08:56;;;;;;;208.73;32.85;;;;;;;0.03;100.00;98444.28;15276932;19;20014;-60
2022/12/05 05:14:21;;;;;;;209.85;34.63;;;;;;;0.05;100.00;98445.88;15276193;19;20496;-61
2022/12/05 05:19:49;;;;;;;598.88;41.85;;;;;;;0.07;100.00;98448.44;15271600;19;20028;-63
2022/12/05 05:25:20;;;;;;;282.63;33.28;;;;;;;0.07;100.00;98449.31;15272253;19;20020;-62
2022/12/05 05:30:45;;;;;;;223.40;33.20;;;;;;;0.09;100.00;98454.50;15271633;19;20027;-62
2022/12/05 05:36:16;;;;;;;230.07;33.55;;;;;;;0.11;100.00;98463.19;15270796;19;20021;-58
2022/12/05 05:41:41;;;;;;;227.10;34.40;;;;;;;0.14;100.00;98468.31;15270449;19;20018;-62
2022/12/05 05:47:05;;;;;;;153.07;32.40;;;;;;;0.14;100.00;98460.38;15271869;19;20014;-60
2022/12/05 05:52:34;;;;;;;84.00;32.47;;;;;;;0.18;100.00;98471.63;15267770;19;20435;-61
2022/12/05 05:57:59;;;;;;;385.45;39.42;;;;;;;0.19;100.00;98468.88;15274362;19;20015;-63
2022/12/05 06:03:23;;;;;;;302.45;35.35;;;;;;;0.20;100.00;98462.63;15269411;19;20028;-62
2022/12/05 06:08:53;;;;;;;344.20;36.58;;;;;;;0.21;100.00;98461.69;15269134;19;20748;-60
2022/12/05 06:14:19;;;;;;;95.18;32.53;;;;;;;0.21;100.00;98464.34;15270609;19;20549;-63
2022/12/05 06:19:43;;;;;;;106.75;32.78;;;;;;;0.22;100.00;98471.34;15269285;19;20460;-60
2022/12/05 06:25:11;;;;;;;249.00;36.13;;;;;;;0.22;100.00;98471.34;15269890;19;20085;-62
2022/12/05 06:30:36;;;;;;;161.90;35.38;;;;;;;0.22;100.00;98471.34;15267797;19;20814;-61
2022/12/05 06:36:06;;;;;;;180.25;35.92;;;;;;;0.23;100.00;98478.34;15271140;19;20021;-62
2022/12/05 06:41:34;;;;;;;202.52;36.00;;;;;;;0.24;100.00;98472.09;15268883;19;20014;-61
2022/12/05 06:46:59;;;;;;;137.13;34.17;;;;;;;0.25;100.00;98479.09;15273452;19;20014;-61
2022/12/05 06:52:23;;;;;;;181.38;35.70;;;;;;;0.27;100.00;98479.88;15267253;19;20014;-60
2022/12/05 06:57:50;;;;;;;184.50;34.45;;;;;;;0.28;100.00;98486.88;15274101;19;20020;-62
2022/12/05 07:03:15;;;;;;;129.95;35.47;;;;;;;0.29;100.00;98488.56;15265987;19;20073;-62
2022/12/05 07:08:40;;;;;;;138.38;35.13;;;;;;;0.33;100.00;98493.66;15268579;19;20094;-59
2022/12/05 07:14:08;;;;;;;94.20;31.73;;;;;;;0.34;100.00;98495.38;15273013;19;20025;-62
2022/12/05 07:19:55;;;;;;;131.23;32.53;;;;;;;0.33;100.00;98510.44;15266085;19;20075;-61
2022/12/05 07:25:21;;;;;;;86.10;32.38;;;;;;;0.36;100.00;98515.53;15265692;19;20506;-61
2022/12/05 07:30:49;;;;;;;183.88;36.20;;;;;;;0.40;100.00;98510.91;15265680;19;20662;-62
2022/12/05 07:36:18;;;;;;;70.72;31.60;;;;;;;0.41;100.00;98507.31;15269807;19;20020;-62
2022/12/05 07:41:43;;;;;;;58.05;29.15;;;;;;;0.45;100.00;98508.81;15267476;19;20627;-62
2022/12/05 07:47:11;;;;;;;55.85;28.15;;;;;;;0.49;100.00;98505.03;15268928;19;20383;-61
2022/12/05 07:52:36;;;;;;;47.75;26.10;;;;;;;0.52;100.00;98515.47;15264145;19;20021;-62
2022/12/05 07:58:00;;;;;;;41.88;23.27;;;;;;;0.57;100.00;98516.00;15270425;19;20021;-63
2022/12/05 08:03:27;;;;;;;45.58;24.60;;;;;;;0.59;100.00;98527.38;15264564;19;20018;-62
2022/12/05 08:08:53;;;;;;;42.63;21.85;;;;;;;0.62;100.00;98521.00;15264336;19;20392;-61
2022/12/05 08:14:18;;;;;;;39.10;21.83;;;;;;;0.62;100.00;98531.63;15270492;19;20023;-61
2022/12/05 08:19:45;;;;;;;38.35;21.77;;;;;;;0.63;100.00;98548.41;15262954;19;20543;-62
2022/12/05 08:25:11;;;;;;;34.08;20.10;;;;;;;0.59;100.00;98545.94;15265416;19;20023;-62
2022/12/05 08:30:35;;;;;;;32.45;19.40;;;;;;;0.65;100.00;98546.50;15262119;19;20386;-62
2022/12/05 08:36:05;;;;;;;31.77;19.45;;;;;;;0.68;100.00;98554.25;15272411;19;20118;-62
2022/12/05 08:41:30;;;;;;;31.33;18.92;;;;;;;0.67;100.00;98550.75;15277940;19;20014;-61
2022/12/05 08:46:55;;;;;;;28.27;18.40;;;;;;;0.70;100.00;98552.38;15278237;19;20747;-62
2022/12/05 08:52:22;;;;;;;28.67;17.67;;;;;;;0.71;100.00;98559.38;15277845;19;20023;-60
2022/12/05 08:57:48;;;;;;;27.00;17.65;;;;;;;0.72;100.00;98569.88;15279344;19;20025;-61
2022/12/05 09:03:12;;;;;;;25.65;17.92;;;;;;;0.77;100.00;98577.53;15276696;19;20483;-61
2022/12/05 09:08:40;;;;;;;27.90;17.70;;;;;;;0.81;100.00;98581.72;15285640;19;20074;-62
2022/12/05 09:14:07;;;;;;;25.00;16.50;;;;;;;0.85;100.00;98585.88;15281006;19;20096;-60
2022/12/05 09:19:32;;;;;;;24.48;16.65;;;;;;;0.89;100.00;98589.19;15275433;19;20014;-62
2022/12/05 09:24:59;;;;;;;27.25;16.40;;;;;;;0.89;100.00;98581.25;15274463;19;20014;-61
2022/12/05 09:30:24;;;;;;;25.27;17.42;;;;;;;0.91;100.00;98595.25;15275123;19;20014;-62
2022/12/05 09:35:48;;;;;;;27.10;16.63;;;;;;;0.89;100.00;98599.81;15278307;19;20109;-62
2022/12/05 09:47:10;;;;;;;190.02;23.25;;;;;;;0.89;100.00;98613.91;15276810;19;20098;-63
2022/12/05 09:52:38;;;;;;;449.17;25.55;;;;;;;0.84;100.00;98600.09;15278087;19;20019;-62
2022/12/05 09:58:08;;;;;;;188.80;21.48;;;;;;;0.89;100.00;98603.28;15315808;19;20015;-62
2022/12/05 10:03:43;;;;;;;344.63;22.92;;;;;;;0.92;100.00;98608.41;15271168;19;20015;-62
2022/12/05 10:09:20;;;;;;;38.58;20.23;;;;;;;1.00;100.00;98602.63;15270213;19;20054;-62
2022/12/05 10:14:59;;;;;;;27.83;19.58;;;;;;;1.06;100.00;98596.09;15274339;19;20021;-62
2022/12/05 10:20:29;;;;;;;26.65;19.60;;;;;;;1.15;100.00;98613.25;15268276;19;20034;-61
2022/12/05 10:25:59;;;;;;;22.77;16.80;;;;;;;1.19;100.00;98606.78;15271092;19;20019;-62
2022/12/05 10:31:31;;;;;;;19.55;14.93;;;;;;;1.21;100.00;98597.78;15267790;19;20014;-60
2022/12/05 10:37:00;;;;;;;18.95;13.35;;;;;;;1.19;100.00;98596.16;15270560;19;20337;-62
2022/12/05 10:42:34;;;;;;;16.88;13.00;;;;;;;1.23;100.00;98595.84;15271517;19;20020;-60
2022/12/05 10:48:02;;;;;;;16.88;13.13;;;;;;;1.28;100.00;98598.25;15274380;19;20384;-60
2022/12/05 10:53:31;;;;;;;17.85;13.35;;;;;;;1.31;100.00;98598.03;15271278;19;20017;-60
2022/12/05 10:58:57;;;;;;;17.42;13.90;;;;;;;1.37;100.00;98597.66;15269673;19;20014;-60
2022/12/05 11:04:37;;;;;;;16.65;12.95;;;;;;;1.38;100.00;98596.69;15266828;19;20090;-62
2022/12/05 11:10:12;;;;;;;17.33;13.23;;;;;;;1.40;100.00;98591.28;15266517;19;20017;-61
2022/12/05 11:15:47;;;;;;;14.93;11.40;;;;;;;1.36;100.00;98593.28;15269210;19;20527;-60
2022/12/05 11:21:22;;;;;;;14.50;12.38;;;;;;;1.38;100.00;98582.56;15263345;19;20040;-59
2022/12/05 11:26:54;;;;;;;13.35;11.38;;;;;;;1.38;100.00;98574.59;15267871;19;20018;-60
2022/12/05 11:32:23;;;;;;;75.70;15.23;;;;;;;1.43;100.00;98576.94;15264456;19;20014;-60
2022/12/05 11:37:55;;;;;;;15.40;12.75;;;;;;;1.47;100.00;98563.38;15267302;19;20377;-61
2022/12/05 11:43:45;;;;;;;15.00;12.15;;;;;;;1.53;100.00;98575.41;15269842;19;20202;-60
2022/12/05 11:49:24;;;;;;;14.35;11.70;;;;;;;1.54;100.00;98566.47;15271340;19;20015;-60
2022/12/05 11:54:58;;;;;;;12.77;11.18;;;;;;;1.57;100.00;98571.59;15264651;19;20011;-60
2022/12/05 12:00:29;;;;;;;13.18;11.23;;;;;;;1.60;100.00;98571.41;15262579;19;20010;-60
2022/12/05 12:06:07;;;;;;;13.95;11.05;;;;;;;1.65;100.00;98576.41;15265674;19;20028;-60
2022/12/05 12:11:40;;;;;;;12.25;10.43;;;;;;;1.69;100.00;98581.41;15265240;19;20292;-64
2022/12/05 12:17:15;;;;;;;11.18;9.73;;;;;;;1.67;100.00;98564.72;15268223;19;20870;-60
2022/12/05 12:23:00;;;;;;;10.40;9.23;;;;;;;1.66;100.00;98564.84;15259896;19;20025;-59
2022/12/05 12:28:47;;;;;;;11.50;9.77;;;;;;;1.64;100.00;98569.41;15264209;19;20021;-61
2022/12/05 12:34:30;;;;;;;11.95;9.95;;;;;;;1.57;100.00;98565.44;15261491;19;20014;-59
2022/12/05 12:40:00;;;;;;;12.52;9.48;;;;;;;1.61;100.00;98569.59;15256708;19;20017;-60
2022/12/05 12:45:49;;;;;;;10.55;9.40;;;;;;;1.57;100.00;98571.59;15265991;19;20011;-60
2022/12/05 12:51:18;;;;;;;12.45;10.20;;;;;;;1.54;100.00;98570.00;15263080;19;20552;-60
2022/12/05 12:56:57;;;;;;;11.10;9.88;;;;;;;1.52;100.00;98577.22;15262418;19;20018;-60
2022/12/05 13:02:34;;;;;;;10.75;8.82;;;;;;;1.51;100.00;98559.56;15267641;19;20014;-60
2022/12/05 13:08:05;;;;;;;9.90;8.38;;;;;;;1.55;100.00;98557.56;15266990;19;20019;-60
2022/12/05 13:13:35;;;;;;;10.43;8.98;;;;;;;1.52;100.00;98555.97;15265061;19;20022;-59
2022/12/05 13:19:04;;;;;;;10.68;9.52;;;;;;;1.59;100.00;98559.06;15263244;19;20022;-59
2022/12/05 13:24:33;;;;;;;10.43;8.95;;;;;;;1.65;100.00;98563.13;15277338;19;20022;-60
2022/12/05 13:30:01;;;;;;;9.95;8.57;;;;;;;1.72;100.00;98564.41;15282513;19;20086;-60
2022/12/05 13:46:58;;;;;;;11.75;9.57;;;;;;;1.78;100.00;98574.66;15277683;19;20026;-59
2022/12/05 13:52:28;;;;;;;11.90;9.93;;;;;;;1.78;100.00;98574.66;15283622;19;20022;-59
2022/12/05 13:57:57;;;;;;;14.57;11.60;;;;;;;1.81;100.00;98590.41;15281510;19;20039;-61
2022/12/05 14:03:57;;;;;;;12.60;10.68;;;;;;;1.83;100.00;98585.81;15281487;19;20297;-58
2022/12/05 14:09:56;;;;;;;12.75;10.40;;;;;;;1.85;100.00;98581.25;15283246;19;20018;-59
2022/12/05 14:15:34;;;;;;;11.93;10.18;;;;;;;1.85;100.00;98575.94;15277339;19;20990;-57
2022/12/05 14:21:14;;;;;;;13.35;10.80;;;;;;;1.84;100.00;98563.59;15279752;19;20425;-57
2022/12/05 14:27:07;;;;;;;13.35;11.60;;;;;;;1.87;100.00;98567.00;15274479;19;20030;-58
2022/12/05 14:32:36;;;;;;;12.68;10.52;;;;;;;1.87;100.00;98567.00;15277962;19;20044;-60
2022/12/05 14:38:05;;;;;;;12.95;10.63;;;;;;;1.83;100.00;98561.91;15279394;19;20363;-59
2022/12/05 14:43:38;;;;;;;11.95;10.18;;;;;;;1.82;100.00;98554.88;15275986;19;20026;-60
2022/12/05 14:49:35;;;;;;;12.73;10.35;;;;;;;1.82;100.00;98559.34;15278253;19;20014;-55
2022/12/05 14:55:11;;;;;;;11.70;10.20;;;;;;;1.80;100.00;98551.50;15272115;19;20022;-58
2022/12/05 15:00:47;;;;;;;13.05;10.60;;;;;;;1.80;100.00;98551.50;15271116;19;20030;-58
2022/12/05 15:06:18;;;;;;;12.93;10.57;;;;;;;1.80;100.00;98561.25;15273503;19;20369;-58
2022/12/05 15:11:44;;;;;;;11.77;10.40;;;;;;;1.77;100.00;98562.31;15278466;19;20025;-58
2022/12/05 15:17:11;;;;;;;12.52;10.55;;;;;;;1.74;100.00;98562.50;15274885;19;20540;-61
2022/12/05 15:22:39;;;;;;;14.45;11.15;;;;;;;1.69;100.00;98556.69;15278238;19;20093;-59
2022/12/05 15:28:14;;;;;;;11.75;10.10;;;;;;;1.64;100.00;98558.78;15273483;19;20531;-58
2022/12/05 15:33:53;;;;;;;14.68;11.38;;;;;;;1.58;100.00;98557.38;15275684;19;20105;-57
2022/12/05 15:39:27;;;;;;;13.27;10.95;;;;;;;1.53;100.00;98560.34;15272571;19;20359;-59
2022/12/05 15:44:52;;;;;;;16.83;12.60;;;;;;;1.47;100.00;98560.72;15273297;19;20018;-59
2022/12/05 15:50:24;;;;;;;26.33;21.92;;;;;;;1.42;100.00;98551.34;15274043;19;20098;-59
2022/12/05 15:55:52;;;;;;;22.58;18.25;;;;;;;1.40;100.00;98562.09;15264790;19;20015;-59
2022/12/05 16:01:21;;;;;;;20.23;15.20;;;;;;;1.38;100.00;98564.84;15266131;19;20475;-61
2022/12/05 16:06:51;;;;;;;20.10;14.32;;;;;;;1.33;100.00;98571.41;15267308;19;20029;-60
2022/12/05 16:12:29;;;;;;;18.83;14.75;;;;;;;1.30;100.00;98568.94;15266928;19;20019;-60
2022/12/05 16:17:56;;;;;;;19.42;14.80;;;;;;;1.27;100.00;98574.44;15269628;19;20022;-60
2022/12/05 16:23:36;;;;;;;20.13;15.35;;;;;;;1.21;100.00;98576.56;15268730;19;20026;-63
2022/12/05 16:29:08;;;;;;;107.70;19.55;;;;;;;1.17;100.00;98579.50;15264746;19;20113;-61
2022/12/05 16:34:35;;;;;;;456.95;26.30;;;;;;;1.02;100.00;98570.69;15266095;19;20074;-63
2022/12/05 16:40:04;;;;;;;720.97;33.15;;;;;;;0.89;100.00;98575.94;15262906;19;20025;-62
2022/12/05 16:45:40;;;;;;;785.85;33.60;;;;;;;0.79;100.00;98580.13;15264239;19;20019;-60
2022/12/05 16:51:27;;;;;;;872.28;32.55;;;;;;;0.76;100.00;98587.31;15268868;19;20014;-61
2022/12/05 16:56:55;;;;;;;600.67;29.23;;;;;;;0.75;100.00;98600.69;15267680;19;20536;-61
2022/12/05 17:02:23;;;;;;;734.10;34.47;;;;;;;0.74;100.00;98610.41;15284034;19;20496;-62
2022/12/05 17:07:48;;;;;;;95.63;21.92;;;;;;;0.77;100.00;98598.75;15285033;19;20025;-61
2022/12/05 17:13:15;;;;;;;796.72;33.15;;;;;;;0.77;100.00;98609.38;15280780;19;20264;-62
2022/12/05 17:18:40;;;;;;;1460.70;43.22;;;;;;;0.76;100.00;98623.59;15281616;19;20543;-62
2022/12/05 17:24:05;;;;;;;867.53;33.33;;;;;;;0.77;100.00;98631.44;15279793;19;20025;-63
2022/12/05 17:29:32;;;;;;;479.73;27.17;;;;;;;0.78;100.00;98629.63;15279531;19;20078;-61
2022/12/05 17:34:57;;;;;;;348.08;26.42;;;;;;;0.78;100.00;98637.59;15277961;19;20015;-62
2022/12/05 17:40:24;;;;;;;723.08;30.20;;;;;;;0.77;100.00;98638.53;15277433;19;20018;-61
2022/12/05 17:45:52;;;;;;;344.25;23.08;;;;;;;0.75;100.00;98633.34;15277231;19;20018;-62
2022/12/05 17:51:19;;;;;;;55.58;19.27;;;;;;;0.77;100.00;98625.28;15278221;19;20014;-60
2022/12/05 17:56:44;;;;;;;34.67;20.25;;;;;;;0.79;100.00;98635.81;15273276;19;20047;-63
2022/12/05 18:02:14;;;;;;;29.10;20.08;;;;;;;0.82;100.00;98648.88;15280587;19;20019;-63
2022/12/05 18:07:38;;;;;;;22.48;18.05;;;;;;;0.85;100.00;98648.69;15280409;19;20029;-60
2022/12/05 18:13:03;;;;;;;24.20;18.13;;;;;;;0.89;100.00;98650.22;15281241;19;20026;-58
2022/12/05 18:18:30;;;;;;;23.38;18.52;;;;;;;0.92;100.00;98648.22;15280076;19;20358;-61
2022/12/05 18:23:56;;;;;;;20.90;16.33;;;;;;;0.97;100.00;98655.03;15280063;19;20078;-60
2022/12/05 18:29:27;;;;;;;22.30;17.67;;;;;;;1.00;100.00;98657.50;15273834;19;20018;-59
2022/12/05 18:34:57;;;;;;;22.23;17.20;;;;;;;1.02;100.00;98660.91;15275332;19;20073;-60
2022/12/05 18:40:28;;;;;;;18.77;15.75;;;;;;;1.03;100.00;98663.47;15273744;19;20309;-59
2022/12/05 18:45:57;;;;;;;20.35;15.95;;;;;;;1.05;100.00;98671.34;15271830;19;20022;-59
2022/12/05 18:51:26;;;;;;;18.88;14.73;;;;;;;1.06;100.00;98670.38;15274468;19;20369;-60
2022/12/05 18:56:52;;;;;;;19.70;15.20;;;;;;;1.08;100.00;98665.84;15272271;19;20029;-60
2022/12/05 19:02:17;;;;;;;19.20;14.82;;;;;;;1.11;100.00;98672.75;15276253;19;20024;-61
2022/12/05 19:07:45;;;;;;;17.85;14.55;;;;;;;1.13;100.00;98684.97;15274892;19;20089;-60
2022/12/05 19:13:10;;;;;;;17.63;13.95;;;;;;;1.13;100.00;98676.16;15246631;19;20026;-60
2022/12/05 19:18:35;;;;;;;16.40;13.85;;;;;;;1.16;100.00;98684.78;15272690;19;20341;-59
2022/12/05 19:24:04;;;;;;;20.80;17.25;;;;;;;1.18;100.00;98677.59;15273399;19;20022;-61
2022/12/05 19:29:35;;;;;;;17.15;13.60;;;;;;;1.19;100.00;98675.78;15276245;19;20022;-61
2022/12/05 19:35:00;;;;;;;16.70;13.63;;;;;;;1.20;100.00;98669.53;15272981;19;20026;-58
2022/12/05 19:40:27;;;;;;;15.88;12.82;;;;;;;1.21;100.00;98669.44;15269120;19;20090;-61
2022/12/05 19:45:52;;;;;;;13.07;10.55;;;;;;;1.21;100.00;98661.47;15271059;19;20018;-58
2022/12/05 19:51:17;;;;;;;13.23;10.70;;;;;;;1.20;100.00;98666.88;15275199;19;20033;-59
2022/12/05 19:56:45;;;;;;;13.50;11.10;;;;;;;1.21;100.00;98669.44;15270211;19;20021;-60
2022/12/05 20:02:09;;;;;;;14.10;11.88;;;;;;;1.17;100.00;98675.03;15245590;19;20026;-59
2022/12/05 20:07:34;;;;;;;17.95;13.95;;;;;;;1.12;100.00;98672.66;15275368;19;20021;-60
2022/12/05 20:13:01;;;;;;;16.73;13.55;;;;;;;1.12;100.00;98677.94;15273995;19;20023;-59
2022/12/05 20:18:47;;;;;;;14.85;12.60;;;;;;;1.13;100.00;98670.88;15270089;19;20369;-58
2022/12/05 20:24:13;;;;;;;11.68;10.48;;;;;;;1.13;100.00;98663.75;15268093;19;20484;-60
2022/12/05 20:29:47;;;;;;;12.30;10.40;;;;;;;1.14;100.00;98668.09;15275371;19;20035;-59
2022/12/05 20:35:12;;;;;;;12.13;9.93;;;;;;;1.17;100.00;98664.44;15283929;19;20032;-60
2022/12/05 20:40:40;;;;;;;10.60;9.50;;;;;;;1.18;100.00;98671.41;15284741;19;20033;-58
2022/12/05 20:46:11;;;;;;;19.10;15.85;;;;;;;1.19;100.00;98671.34;15285005;19;20027;-59
2022/12/05 20:51:38;;;;;;;13.57;11.57;;;;;;;1.20;100.00;98664.22;15288562;19;20026;-60
2022/12/05 20:57:03;;;;;;;10.45;9.35;;;;;;;1.21;100.00;98653.53;15283975;19;20020;-59
2022/12/05 21:02:30;;;;;;;10.85;9.52;;;;;;;1.23;100.00;98656.06;15320537;19;20015;-62
2022/12/05 21:08:01;;;;;;;11.43;10.23;;;;;;;1.25;100.00;98655.97;15282762;19;20025;-63
2022/12/05 21:13:32;;;;;;;13.67;10.40;;;;;;;1.23;100.00;98642.78;15282847;19;20041;-61
2022/12/05 21:19:01;;;;;;;12.63;9.48;;;;;;;1.25;100.00;98643.56;15279405;19;20251;-60
2022/12/05 21:24:27;;;;;;;9.57;8.57;;;;;;;1.23;100.00;98648.94;15277704;19;20029;-60
2022/12/05 21:29:58;;;;;;;9.93;8.63;;;;;;;1.24;100.00;98649.81;15282899;19;20018;-61
2022/12/05 21:35:25;;;;;;;9.50;8.50;;;;;;;1.24;100.00;98649.81;15279334;19;20480;-59
2022/12/05 21:40:50;;;;;;;9.98;8.88;;;;;;;1.24;100.00;98644.50;15278549;19;20368;-60
2022/12/05 21:46:15;;;;;;;9.52;8.35;;;;;;;1.25;100.00;98640.91;15275693;19;20018;-60
2022/12/05 21:51:42;;;;;;;9.25;8.15;;;;;;;1.23;100.00;98635.66;15281354;19;20040;-59
2022/12/05 21:57:07;;;;;;;9.07;8.15;;;;;;;1.23;100.00;98637.50;15275549;19;20111;-58
2022/12/05 22:02:32;;;;;;;10.85;8.85;;;;;;;1.20;100.00;98638.53;15277499;19;20658;-58
2022/12/05 22:07:59;;;;;;;10.80;9.10;;;;;;;1.18;100.00;98632.47;15280369;19;20015;-60
2022/12/05 22:13:24;;;;;;;11.50;9.02;;;;;;;1.18;100.00;98636.91;15278097;19;20022;-60
2022/12/05 22:18:49;;;;;;;11.98;10.35;;;;;;;1.19;100.00;98635.97;15279982;19;20349;-59
2022/12/05 22:24:16;;;;;;;11.10;9.35;;;;;;;1.19;100.00;98635.97;15277051;19;20421;-59
2022/12/05 22:29:47;;;;;;;10.52;8.82;;;;;;;1.22;100.00;98641.09;15275738;19;20106;-59
2022/12/05 22:35:12;;;;;;;12.10;9.87;;;;;;;1.22;100.00;98641.97;15275328;19;20028;-61
2022/12/05 22:40:39;;;;;;;12.57;9.80;;;;;;;1.23;100.00;98635.66;15276357;19;20243;-59
2022/12/05 22:46:08;;;;;;;11.68;9.20;;;;;;;1.25;100.00;98635.59;15274832;19;20354;-60
2022/12/05 22:51:32;;;;;;;10.70;8.70;;;;;;;1.25;100.00;98626.75;15276302;19;20015;-59
2022/12/05 22:57:00;;;;;;;10.18;9.05;;;;;;;1.23;100.00;98624.22;15268841;19;20476;-59
2022/12/05 23:02:24;;;;;;;11.05;9.02;;;;;;;1.22;100.00;98630.47;15273995;19;20036;-61
2022/12/05 23:07:49;;;;;;;54.60;10.88;;;;;;;1.19;100.00;98614.72;15275888;19;20022;-62
2022/12/05 23:13:17;;;;;;;114.45;10.57;;;;;;;1.13;100.00;98609.84;15275307;19;20021;-61
2022/12/05 23:18:49;;;;;;;777.10;24.02;;;;;;;1.06;100.00;98596.09;15273405;19;20026;-60
2022/12/05 23:24:16;;;;;;;710.05;24.00;;;;;;;1.03;100.00;98599.81;15274696;19;20018;-62
2022/12/05 23:29:50;;;;;;;286.30;17.42;;;;;;;0.97;100.00;98592.22;15270880;19;20018;-63
2022/12/05 23:35:16;;;;;;;541.13;23.40;;;;;;;0.98;100.00;98587.78;15271231;19;20279;-61
2022/12/05 23:40:40;;;;;;;593.03;22.92;;;;;;;0.99;100.00;98581.53;15273171;19;20023;-61
2022/12/05 23:46:08;;;;;;;221.70;16.65;;;;;;;0.97;100.00;98580.75;15270821;19;20078;-60
2022/12/05 23:51:38;;;;;;;857.03;28.75;;;;;;;0.95;100.00;98574.69;15273092;19;20019;-59
2022/12/05 23:57:04;;;;;;;308.50;18.20;;;;;;;0.89;100.00;98560.84;15268430;19;20022;-60
